sensor_id;sensor_type;location;lat;lon;timestamp;P1;durP1;ratioP1;P2;durP2;ratioP2
14116;SDS011;7137;51.436;6.544;2022-09-09T00:01:20;2.43;;;0.70;;
14116;SDS011;7137;51.436;6.544;2022-09-09T00:04:31;2.50;;;0.80;;
14116;SDS011;7137;51.436;6.544;2022-09-09T00:07:36;2.30;;;0.80;;
14116;SDS011;7137;51.436;6.544;2022-09-09T00:10:45;2.00;;;0.70;;
14116;SDS011;7137;51.436;6.544;2022-09-09T00:13:53;1.47;;;0.70;;
14116;SDS011;7137;51.436;6.544;2022-09-09T00:17:00;1.90;;;0.73;;
14116;SDS011;7137;51.436;6.544;2022-09-09T00:20:09;1.17;;;0.70;;
14116;SDS011;7137;51.436;6.544;2022-09-09T00:23:15;3.33;;;0.97;;
14116;SDS011;7137;51.436;6.544;2022-09-09T00:26:27;2.23;;;0.73;;
14116;SDS011;7137;51.436;6.544;2022-09-09T00:29:38;2.23;;;0.87;;
14116;SDS011;7137;51.436;6.544;2022-09-09T00:32:45;2.47;;;0.90;;
14116;SDS011;7137;51.436;6.544;2022-09-09T00:35:48;2.53;;;1.00;;
14116;SDS011;7137;51.436;6.544;2022-09-09T00:38:51;1.70;;;0.90;;
14116;SDS011;7137;51.436;6.544;2022-09-09T00:42:01;2.70;;;1.10;;
14116;SDS011;7137;51.436;6.544;2022-09-09T00:45:19;4.10;;;1.00;;
14116;SDS011;7137;51.436;6.544;2022-09-09T00:48:40;3.20;;;1.03;;
14116;SDS011;7137;51.436;6.544;2022-09-09T00:51:53;2.37;;;0.90;;
14116;SDS011;7137;51.436;6.544;2022-09-09T00:55:03;1.80;;;0.90;;
14116;SDS011;7137;51.436;6.544;2022-09-09T00:58:14;1.53;;;0.90;;
14116;SDS011;7137;51.436;6.544;2022-09-09T01:01:16;1.73;;;0.90;;
14116;SDS011;7137;51.436;6.544;2022-09-09T01:04:19;2.40;;;0.80;;
14116;SDS011;7137;51.436;6.544;2022-09-09T01:07:29;2.53;;;1.00;;
14116;SDS011;7137;51.436;6.544;2022-09-09T01:10:45;2.50;;;1.00;;
14116;SDS011;7137;51.436;6.544;2022-09-09T01:13:55;2.60;;;1.00;;
14116;SDS011;7137;51.436;6.544;2022-09-09T01:17:05;2.07;;;0.90;;
14116;SDS011;7137;51.436;6.544;2022-09-09T01:20:15;2.90;;;1.20;;
14116;SDS011;7137;51.436;6.544;2022-09-09T01:23:26;2.60;;;1.00;;
14116;SDS011;7137;51.436;6.544;2022-09-09T01:26:36;2.53;;;1.10;;
14116;SDS011;7137;51.436;6.544;2022-09-09T01:29:40;2.83;;;1.00;;
14116;SDS011;7137;51.436;6.544;2022-09-09T01:32:43;1.57;;;0.87;;
14116;SDS011;7137;51.436;6.544;2022-09-09T01:35:46;2.53;;;1.00;;
14116;SDS011;7137;51.436;6.544;2022-09-09T01:42:49;2.80;;;1.30;;
14116;SDS011;7137;51.436;6.544;2022-09-09T01:45:52;4.40;;;1.60;;
14116;SDS011;7137;51.436;6.544;2022-09-09T01:48:56;2.43;;;1.27;;
14116;SDS011;7137;51.436;6.544;2022-09-09T01:52:00;2.90;;;1.37;;
14116;SDS011;7137;51.436;6.544;2022-09-09T01:55:02;2.80;;;1.40;;
14116;SDS011;7137;51.436;6.544;2022-09-09T01:58:10;3.47;;;1.80;;
14116;SDS011;7137;51.436;6.544;2022-09-09T02:01:24;3.83;;;1.70;;
14116;SDS011;7137;51.436;6.544;2022-09-09T02:04:38;3.17;;;1.53;;
14116;SDS011;7137;51.436;6.544;2022-09-09T02:07:42;3.90;;;1.70;;
14116;SDS011;7137;51.436;6.544;2022-09-09T02:10:50;3.13;;;1.57;;
14116;SDS011;7137;51.436;6.544;2022-09-09T02:13:59;4.13;;;1.70;;
14116;SDS011;7137;51.436;6.544;2022-09-09T02:17:03;3.10;;;1.50;;
14116;SDS011;7137;51.436;6.544;2022-09-09T02:20:10;4.07;;;1.60;;
14116;SDS011;7137;51.436;6.544;2022-09-09T02:23:14;4.20;;;1.80;;
14116;SDS011;7137;51.436;6.544;2022-09-09T02:26:17;2.90;;;1.30;;
14116;SDS011;7137;51.436;6.544;2022-09-09T02:29:25;2.87;;;1.30;;
14116;SDS011;7137;51.436;6.544;2022-09-09T02:32:30;2.77;;;1.20;;
14116;SDS011;7137;51.436;6.544;2022-09-09T02:35:35;2.83;;;1.20;;
14116;SDS011;7137;51.436;6.544;2022-09-09T02:38:40;2.93;;;1.20;;
14116;SDS011;7137;51.436;6.544;2022-09-09T02:41:50;3.63;;;1.00;;
14116;SDS011;7137;51.436;6.544;2022-09-09T02:44:55;4.23;;;1.33;;
14116;SDS011;7137;51.436;6.544;2022-09-09T02:47:58;3.83;;;1.20;;
14116;SDS011;7137;51.436;6.544;2022-09-09T02:51:05;3.80;;;1.10;;
14116;SDS011;7137;51.436;6.544;2022-09-09T02:54:12;3.13;;;1.03;;
14116;SDS011;7137;51.436;6.544;2022-09-09T02:57:22;3.43;;;1.17;;
14116;SDS011;7137;51.436;6.544;2022-09-09T03:00:29;4.40;;;1.10;;
14116;SDS011;7137;51.436;6.544;2022-09-09T03:03:31;3.13;;;1.20;;
14116;SDS011;7137;51.436;6.544;2022-09-09T03:06:33;5.80;;;1.57;;
14116;SDS011;7137;51.436;6.544;2022-09-09T03:09:35;6.53;;;1.20;;
14116;SDS011;7137;51.436;6.544;2022-09-09T03:12:37;4.47;;;1.40;;
14116;SDS011;7137;51.436;6.544;2022-09-09T03:15:40;5.33;;;1.20;;
14116;SDS011;7137;51.436;6.544;2022-09-09T03:18:41;5.80;;;1.43;;
14116;SDS011;7137;51.436;6.544;2022-09-09T03:21:45;3.60;;;1.10;;
14116;SDS011;7137;51.436;6.544;2022-09-09T03:24:47;4.97;;;1.40;;
14116;SDS011;7137;51.436;6.544;2022-09-09T03:27:48;5.90;;;1.40;;
14116;SDS011;7137;51.436;6.544;2022-09-09T03:30:51;5.23;;;1.33;;
14116;SDS011;7137;51.436;6.544;2022-09-09T03:33:53;3.87;;;1.30;;
14116;SDS011;7137;51.436;6.544;2022-09-09T03:36:54;3.50;;;1.30;;
14116;SDS011;7137;51.436;6.544;2022-09-09T03:39:56;4.27;;;1.27;;
14116;SDS011;7137;51.436;6.544;2022-09-09T03:42:57;3.40;;;1.30;;
14116;SDS011;7137;51.436;6.544;2022-09-09T03:46:00;5.13;;;1.37;;
14116;SDS011;7137;51.436;6.544;2022-09-09T03:49:02;5.50;;;1.30;;
14116;SDS011;7137;51.436;6.544;2022-09-09T03:52:04;4.03;;;1.30;;
14116;SDS011;7137;51.436;6.544;2022-09-09T03:55:05;4.83;;;1.40;;
14116;SDS011;7137;51.436;6.544;2022-09-09T03:58:08;4.63;;;1.33;;
14116;SDS011;7137;51.436;6.544;2022-09-09T04:01:12;4.43;;;1.30;;
14116;SDS011;7137;51.436;6.544;2022-09-09T04:04:14;5.20;;;1.20;;
14116;SDS011;7137;51.436;6.544;2022-09-09T04:07:16;4.07;;;1.37;;
14116;SDS011;7137;51.436;6.544;2022-09-09T04:10:17;4.87;;;1.20;;
14116;SDS011;7137;51.436;6.544;2022-09-09T04:13:19;3.97;;;1.43;;
14116;SDS011;7137;51.436;6.544;2022-09-09T04:16:22;5.03;;;1.27;;
14116;SDS011;7137;51.436;6.544;2022-09-09T04:19:24;4.10;;;1.30;;
14116;SDS011;7137;51.436;6.544;2022-09-09T04:22:26;2.93;;;1.30;;
14116;SDS011;7137;51.436;6.544;2022-09-09T04:25:27;4.03;;;1.43;;
14116;SDS011;7137;51.436;6.544;2022-09-09T04:28:29;8.37;;;1.50;;
14116;SDS011;7137;51.436;6.544;2022-09-09T04:31:34;5.27;;;1.50;;
14116;SDS011;7137;51.436;6.544;2022-09-09T04:34:35;5.33;;;1.50;;
14116;SDS011;7137;51.436;6.544;2022-09-09T04:37:37;5.70;;;1.40;;
14116;SDS011;7137;51.436;6.544;2022-09-09T04:40:38;4.47;;;1.70;;
14116;SDS011;7137;51.436;6.544;2022-09-09T04:43:43;5.17;;;1.50;;
14116;SDS011;7137;51.436;6.544;2022-09-09T04:46:46;5.23;;;1.50;;
14116;SDS011;7137;51.436;6.544;2022-09-09T04:49:48;5.23;;;1.60;;
14116;SDS011;7137;51.436;6.544;2022-09-09T04:52:49;5.50;;;1.40;;
14116;SDS011;7137;51.436;6.544;2022-09-09T04:55:51;5.17;;;1.60;;
14116;SDS011;7137;51.436;6.544;2022-09-09T04:58:53;3.87;;;1.77;;
14116;SDS011;7137;51.436;6.544;2022-09-09T05:01:56;4.37;;;1.50;;
14116;SDS011;7137;51.436;6.544;2022-09-09T05:04:58;8.37;;;2.27;;
14116;SDS011;7137;51.436;6.544;2022-09-09T05:08:00;5.03;;;1.53;;
14116;SDS011;7137;51.436;6.544;2022-09-09T05:11:03;5.43;;;1.60;;
14116;SDS011;7137;51.436;6.544;2022-09-09T05:14:05;7.07;;;1.70;;
14116;SDS011;7137;51.436;6.544;2022-09-09T05:17:08;5.77;;;1.97;;
14116;SDS011;7137;51.436;6.544;2022-09-09T05:20:09;5.33;;;1.73;;
14116;SDS011;7137;51.436;6.544;2022-09-09T05:23:12;5.23;;;1.73;;
14116;SDS011;7137;51.436;6.544;2022-09-09T05:26:14;7.03;;;2.27;;
14116;SDS011;7137;51.436;6.544;2022-09-09T05:29:17;6.30;;;2.20;;
14116;SDS011;7137;51.436;6.544;2022-09-09T05:32:20;7.50;;;2.73;;
14116;SDS011;7137;51.436;6.544;2022-09-09T05:35:22;9.57;;;3.87;;
14116;SDS011;7137;51.436;6.544;2022-09-09T05:38:23;9.20;;;3.97;;
14116;SDS011;7137;51.436;6.544;2022-09-09T05:41:25;7.57;;;3.23;;
14116;SDS011;7137;51.436;6.544;2022-09-09T05:44:28;8.97;;;3.37;;
14116;SDS011;7137;51.436;6.544;2022-09-09T05:47:31;6.30;;;2.53;;
14116;SDS011;7137;51.436;6.544;2022-09-09T05:50:33;8.43;;;2.27;;
14116;SDS011;7137;51.436;6.544;2022-09-09T05:53:34;5.93;;;2.00;;
14116;SDS011;7137;51.436;6.544;2022-09-09T05:56:36;5.20;;;1.83;;
14116;SDS011;7137;51.436;6.544;2022-09-09T05:59:38;5.43;;;1.90;;
14116;SDS011;7137;51.436;6.544;2022-09-09T06:02:41;5.30;;;1.80;;
14116;SDS011;7137;51.436;6.544;2022-09-09T06:05:42;7.27;;;2.10;;
14116;SDS011;7137;51.436;6.544;2022-09-09T06:08:44;6.17;;;1.93;;
14116;SDS011;7137;51.436;6.544;2022-09-09T06:11:46;6.10;;;2.10;;
14116;SDS011;7137;51.436;6.544;2022-09-09T06:14:47;7.10;;;1.50;;
14116;SDS011;7137;51.436;6.544;2022-09-09T06:17:55;6.80;;;2.07;;
14116;SDS011;7137;51.436;6.544;2022-09-09T06:20:56;7.27;;;1.93;;
14116;SDS011;7137;51.436;6.544;2022-09-09T06:24:00;5.27;;;1.80;;
14116;SDS011;7137;51.436;6.544;2022-09-09T06:27:02;5.20;;;1.90;;
14116;SDS011;7137;51.436;6.544;2022-09-09T06:30:05;6.03;;;1.63;;
14116;SDS011;7137;51.436;6.544;2022-09-09T06:33:10;4.97;;;1.33;;
14116;SDS011;7137;51.436;6.544;2022-09-09T06:36:13;6.20;;;1.80;;
14116;SDS011;7137;51.436;6.544;2022-09-09T06:39:16;5.57;;;1.77;;
14116;SDS011;7137;51.436;6.544;2022-09-09T06:42:18;6.53;;;1.90;;
14116;SDS011;7137;51.436;6.544;2022-09-09T06:45:19;5.97;;;1.60;;
14116;SDS011;7137;51.436;6.544;2022-09-09T06:48:22;6.03;;;1.80;;
14116;SDS011;7137;51.436;6.544;2022-09-09T06:51:26;4.87;;;1.67;;
14116;SDS011;7137;51.436;6.544;2022-09-09T06:54:28;6.93;;;1.70;;
14116;SDS011;7137;51.436;6.544;2022-09-09T06:57:30;6.00;;;1.57;;
14116;SDS011;7137;51.436;6.544;2022-09-09T07:00:31;5.83;;;1.47;;
14116;SDS011;7137;51.436;6.544;2022-09-09T07:03:34;6.67;;;1.60;;
14116;SDS011;7137;51.436;6.544;2022-09-09T07:06:37;8.67;;;1.40;;
14116;SDS011;7137;51.436;6.544;2022-09-09T07:09:41;5.13;;;1.20;;
14116;SDS011;7137;51.436;6.544;2022-09-09T07:12:45;4.63;;;1.40;;
14116;SDS011;7137;51.436;6.544;2022-09-09T07:15:52;5.23;;;1.20;;
14116;SDS011;7137;51.436;6.544;2022-09-09T07:18:55;4.67;;;1.00;;
14116;SDS011;7137;51.436;6.544;2022-09-09T07:21:57;4.90;;;1.50;;
14116;SDS011;7137;51.436;6.544;2022-09-09T07:24:59;5.30;;;1.37;;
14116;SDS011;7137;51.436;6.544;2022-09-09T07:28:02;5.60;;;1.43;;
14116;SDS011;7137;51.436;6.544;2022-09-09T07:31:04;4.13;;;1.40;;
14116;SDS011;7137;51.436;6.544;2022-09-09T07:34:08;5.27;;;1.40;;
14116;SDS011;7137;51.436;6.544;2022-09-09T07:37:10;6.17;;;1.47;;
14116;SDS011;7137;51.436;6.544;2022-09-09T07:40:14;5.40;;;1.50;;
14116;SDS011;7137;51.436;6.544;2022-09-09T07:43:16;5.23;;;1.40;;
14116;SDS011;7137;51.436;6.544;2022-09-09T07:46:19;5.83;;;1.40;;
14116;SDS011;7137;51.436;6.544;2022-09-09T07:49:24;5.37;;;1.37;;
14116;SDS011;7137;51.436;6.544;2022-09-09T07:52:25;5.97;;;1.40;;
14116;SDS011;7137;51.436;6.544;2022-09-09T07:55:27;5.53;;;1.70;;
14116;SDS011;7137;51.436;6.544;2022-09-09T07:58:28;5.30;;;1.50;;
14116;SDS011;7137;51.436;6.544;2022-09-09T08:01:31;4.93;;;1.37;;
14116;SDS011;7137;51.436;6.544;2022-09-09T08:04:35;5.07;;;1.60;;
14116;SDS011;7137;51.436;6.544;2022-09-09T08:07:37;6.67;;;1.43;;
14116;SDS011;7137;51.436;6.544;2022-09-09T08:10:38;5.60;;;1.40;;
14116;SDS011;7137;51.436;6.544;2022-09-09T08:13:41;6.57;;;1.60;;
14116;SDS011;7137;51.436;6.544;2022-09-09T08:16:43;6.57;;;1.40;;
14116;SDS011;7137;51.436;6.544;2022-09-09T08:19:48;4.53;;;1.17;;
14116;SDS011;7137;51.436;6.544;2022-09-09T08:22:50;5.23;;;1.47;;
14116;SDS011;7137;51.436;6.544;2022-09-09T08:25:51;4.03;;;1.10;;
14116;SDS011;7137;51.436;6.544;2022-09-09T08:28:54;4.73;;;1.10;;
14116;SDS011;7137;51.436;6.544;2022-09-09T08:31:57;5.33;;;1.43;;
14116;SDS011;7137;51.436;6.544;2022-09-09T08:35:01;5.47;;;1.30;;
14116;SDS011;7137;51.436;6.544;2022-09-09T08:38:02;4.60;;;1.20;;
14116;SDS011;7137;51.436;6.544;2022-09-09T08:41:09;5.90;;;1.60;;
14116;SDS011;7137;51.436;6.544;2022-09-09T08:44:20;4.33;;;1.20;;
14116;SDS011;7137;51.436;6.544;2022-09-09T08:47:33;4.47;;;1.03;;
14116;SDS011;7137;51.436;6.544;2022-09-09T08:50:43;6.23;;;1.50;;
14116;SDS011;7137;51.436;6.544;2022-09-09T08:53:49;4.83;;;1.20;;
14116;SDS011;7137;51.436;6.544;2022-09-09T08:56:53;6.13;;;1.50;;
14116;SDS011;7137;51.436;6.544;2022-09-09T08:59:56;5.63;;;1.40;;
14116;SDS011;7137;51.436;6.544;2022-09-09T09:03:01;4.97;;;1.20;;
14116;SDS011;7137;51.436;6.544;2022-09-09T09:06:13;5.43;;;1.30;;
14116;SDS011;7137;51.436;6.544;2022-09-09T09:09:29;6.37;;;1.40;;
14116;SDS011;7137;51.436;6.544;2022-09-09T09:12:40;6.03;;;1.50;;
14116;SDS011;7137;51.436;6.544;2022-09-09T09:15:44;9.43;;;1.87;;
14116;SDS011;7137;51.436;6.544;2022-09-09T09:18:52;6.07;;;1.87;;
14116;SDS011;7137;51.436;6.544;2022-09-09T09:21:58;4.57;;;1.40;;
14116;SDS011;7137;51.436;6.544;2022-09-09T09:25:08;4.07;;;1.20;;
14116;SDS011;7137;51.436;6.544;2022-09-09T09:28:17;5.03;;;1.40;;
14116;SDS011;7137;51.436;6.544;2022-09-09T09:31:24;4.80;;;1.27;;
14116;SDS011;7137;51.436;6.544;2022-09-09T09:34:26;7.53;;;1.40;;
14116;SDS011;7137;51.436;6.544;2022-09-09T09:37:31;4.10;;;1.03;;
14116;SDS011;7137;51.436;6.544;2022-09-09T09:40:36;5.63;;;1.50;;
14116;SDS011;7137;51.436;6.544;2022-09-09T09:43:39;4.90;;;1.20;;
14116;SDS011;7137;51.436;6.544;2022-09-09T09:46:42;5.97;;;1.50;;
14116;SDS011;7137;51.436;6.544;2022-09-09T09:49:53;5.33;;;1.20;;
14116;SDS011;7137;51.436;6.544;2022-09-09T09:52:57;4.73;;;1.13;;
14116;SDS011;7137;51.436;6.544;2022-09-09T09:56:00;4.03;;;1.20;;
14116;SDS011;7137;51.436;6.544;2022-09-09T09:59:04;3.30;;;1.07;;
14116;SDS011;7137;51.436;6.544;2022-09-09T10:02:06;3.57;;;1.03;;
14116;SDS011;7137;51.436;6.544;2022-09-09T10:05:17;5.20;;;1.10;;
14116;SDS011;7137;51.436;6.544;2022-09-09T10:08:22;6.30;;;1.27;;
14116;SDS011;7137;51.436;6.544;2022-09-09T10:11:27;4.80;;;1.10;;
14116;SDS011;7137;51.436;6.544;2022-09-09T10:14:39;4.97;;;1.60;;
14116;SDS011;7137;51.436;6.544;2022-09-09T10:17:48;3.80;;;0.90;;
14116;SDS011;7137;51.436;6.544;2022-09-09T10:20:59;3.87;;;1.10;;
14116;SDS011;7137;51.436;6.544;2022-09-09T10:24:15;6.00;;;1.40;;
14116;SDS011;7137;51.436;6.544;2022-09-09T10:27:33;6.37;;;1.20;;
14116;SDS011;7137;51.436;6.544;2022-09-09T10:30:42;5.20;;;1.40;;
14116;SDS011;7137;51.436;6.544;2022-09-09T10:33:56;5.33;;;1.13;;
14116;SDS011;7137;51.436;6.544;2022-09-09T10:37:11;4.30;;;1.13;;
14116;SDS011;7137;51.436;6.544;2022-09-09T10:40:27;5.10;;;1.17;;
14116;SDS011;7137;51.436;6.544;2022-09-09T10:43:38;5.93;;;1.00;;
14116;SDS011;7137;51.436;6.544;2022-09-09T10:46:56;4.77;;;1.27;;
14116;SDS011;7137;51.436;6.544;2022-09-09T10:50:23;4.43;;;1.13;;
14116;SDS011;7137;51.436;6.544;2022-09-09T10:53:37;6.03;;;1.23;;
14116;SDS011;7137;51.436;6.544;2022-09-09T10:56:49;4.00;;;1.00;;
14116;SDS011;7137;51.436;6.544;2022-09-09T10:59:57;4.80;;;1.20;;
14116;SDS011;7137;51.436;6.544;2022-09-09T11:03:03;5.50;;;1.33;;
14116;SDS011;7137;51.436;6.544;2022-09-09T11:06:09;3.70;;;0.90;;
14116;SDS011;7137;51.436;6.544;2022-09-09T11:09:17;4.83;;;1.10;;
14116;SDS011;7137;51.436;6.544;2022-09-09T11:12:23;5.40;;;1.33;;
14116;SDS011;7137;51.436;6.544;2022-09-09T11:15:28;4.90;;;1.20;;
14116;SDS011;7137;51.436;6.544;2022-09-09T11:18:37;4.40;;;0.97;;
14116;SDS011;7137;51.436;6.544;2022-09-09T11:21:44;4.53;;;1.20;;
14116;SDS011;7137;51.436;6.544;2022-09-09T11:24:48;5.07;;;1.10;;
14116;SDS011;7137;51.436;6.544;2022-09-09T11:28:00;5.30;;;1.30;;
14116;SDS011;7137;51.436;6.544;2022-09-09T11:31:19;3.77;;;1.30;;
14116;SDS011;7137;51.436;6.544;2022-09-09T11:34:44;4.43;;;0.80;;
14116;SDS011;7137;51.436;6.544;2022-09-09T11:37:59;6.63;;;0.90;;
14116;SDS011;7137;51.436;6.544;2022-09-09T11:41:18;5.23;;;1.10;;
14116;SDS011;7137;51.436;6.544;2022-09-09T11:44:26;3.70;;;1.10;;
14116;SDS011;7137;51.436;6.544;2022-09-09T11:47:31;4.33;;;0.90;;
14116;SDS011;7137;51.436;6.544;2022-09-09T11:50:33;4.27;;;1.00;;
14116;SDS011;7137;51.436;6.544;2022-09-09T11:53:47;4.10;;;1.00;;
14116;SDS011;7137;51.436;6.544;2022-09-09T11:56:49;6.27;;;1.20;;
14116;SDS011;7137;51.436;6.544;2022-09-09T11:59:52;4.53;;;0.90;;
14116;SDS011;7137;51.436;6.544;2022-09-09T12:02:55;4.60;;;1.00;;
14116;SDS011;7137;51.436;6.544;2022-09-09T12:05:56;1.93;;;0.63;;
14116;SDS011;7137;51.436;6.544;2022-09-09T12:09:05;4.10;;;0.80;;
14116;SDS011;7137;51.436;6.544;2022-09-09T12:15:35;3.07;;;0.90;;
14116;SDS011;7137;51.436;6.544;2022-09-09T12:18:48;4.70;;;1.00;;
14116;SDS011;7137;51.436;6.544;2022-09-09T12:21:51;3.40;;;1.00;;
14116;SDS011;7137;51.436;6.544;2022-09-09T12:25:04;2.77;;;0.80;;
14116;SDS011;7137;51.436;6.544;2022-09-09T12:28:16;3.90;;;1.10;;
14116;SDS011;7137;51.436;6.544;2022-09-09T12:31:22;3.07;;;1.00;;
14116;SDS011;7137;51.436;6.544;2022-09-09T12:34:32;4.23;;;0.80;;
14116;SDS011;7137;51.436;6.544;2022-09-09T12:37:39;5.10;;;1.30;;
14116;SDS011;7137;51.436;6.544;2022-09-09T12:40:53;4.97;;;1.40;;
14116;SDS011;7137;51.436;6.544;2022-09-09T12:44:03;3.57;;;1.10;;
14116;SDS011;7137;51.436;6.544;2022-09-09T12:47:09;4.53;;;1.20;;
14116;SDS011;7137;51.436;6.544;2022-09-09T12:50:17;4.50;;;1.00;;
14116;SDS011;7137;51.436;6.544;2022-09-09T12:53:22;4.07;;;1.00;;
14116;SDS011;7137;51.436;6.544;2022-09-09T12:56:27;3.97;;;0.90;;
14116;SDS011;7137;51.436;6.544;2022-09-09T12:59:36;5.87;;;1.17;;
14116;SDS011;7137;51.436;6.544;2022-09-09T13:02:47;4.83;;;1.33;;
14116;SDS011;7137;51.436;6.544;2022-09-09T13:05:50;3.63;;;0.90;;
14116;SDS011;7137;51.436;6.544;2022-09-09T13:08:53;5.27;;;1.20;;
14116;SDS011;7137;51.436;6.544;2022-09-09T13:11:56;4.87;;;1.30;;
14116;SDS011;7137;51.436;6.544;2022-09-09T13:14:58;5.57;;;1.23;;
14116;SDS011;7137;51.436;6.544;2022-09-09T13:18:02;3.60;;;1.20;;
14116;SDS011;7137;51.436;6.544;2022-09-09T13:21:08;5.67;;;1.30;;
14116;SDS011;7137;51.436;6.544;2022-09-09T13:24:22;4.53;;;1.30;;
14116;SDS011;7137;51.436;6.544;2022-09-09T13:27:30;6.23;;;1.53;;
14116;SDS011;7137;51.436;6.544;2022-09-09T13:30:34;3.93;;;1.00;;
14116;SDS011;7137;51.436;6.544;2022-09-09T13:33:41;4.33;;;1.10;;
14116;SDS011;7137;51.436;6.544;2022-09-09T13:36:46;4.17;;;1.30;;
14116;SDS011;7137;51.436;6.544;2022-09-09T13:39:50;3.40;;;1.20;;
14116;SDS011;7137;51.436;6.544;2022-09-09T13:42:55;3.63;;;1.20;;
14116;SDS011;7137;51.436;6.544;2022-09-09T13:45:59;5.60;;;1.60;;
14116;SDS011;7137;51.436;6.544;2022-09-09T13:49:18;5.07;;;1.40;;
14116;SDS011;7137;51.436;6.544;2022-09-09T13:52:21;3.13;;;0.97;;
14116;SDS011;7137;51.436;6.544;2022-09-09T13:55:24;4.53;;;1.10;;
14116;SDS011;7137;51.436;6.544;2022-09-09T13:58:27;5.53;;;1.40;;
14116;SDS011;7137;51.436;6.544;2022-09-09T14:01:29;3.97;;;1.10;;
14116;SDS011;7137;51.436;6.544;2022-09-09T14:04:32;3.50;;;1.00;;
14116;SDS011;7137;51.436;6.544;2022-09-09T14:07:35;3.73;;;1.00;;
14116;SDS011;7137;51.436;6.544;2022-09-09T14:10:37;3.17;;;1.13;;
14116;SDS011;7137;51.436;6.544;2022-09-09T14:13:39;2.30;;;0.90;;
14116;SDS011;7137;51.436;6.544;2022-09-09T14:16:41;2.10;;;0.67;;
14116;SDS011;7137;51.436;6.544;2022-09-09T14:19:43;7.43;;;1.83;;
14116;SDS011;7137;51.436;6.544;2022-09-09T14:22:46;4.70;;;1.17;;
14116;SDS011;7137;51.436;6.544;2022-09-09T14:25:47;2.80;;;1.00;;
14116;SDS011;7137;51.436;6.544;2022-09-09T14:28:49;3.27;;;1.00;;
14116;SDS011;7137;51.436;6.544;2022-09-09T14:31:51;3.67;;;0.77;;
14116;SDS011;7137;51.436;6.544;2022-09-09T14:34:54;3.77;;;1.33;;
14116;SDS011;7137;51.436;6.544;2022-09-09T14:37:56;3.07;;;0.87;;
14116;SDS011;7137;51.436;6.544;2022-09-09T14:40:57;3.20;;;0.80;;
14116;SDS011;7137;51.436;6.544;2022-09-09T14:43:59;3.83;;;1.10;;
14116;SDS011;7137;51.436;6.544;2022-09-09T14:47:01;4.20;;;1.10;;
14116;SDS011;7137;51.436;6.544;2022-09-09T14:50:05;3.80;;;1.10;;
14116;SDS011;7137;51.436;6.544;2022-09-09T14:53:07;2.50;;;0.93;;
14116;SDS011;7137;51.436;6.544;2022-09-09T14:56:11;2.93;;;0.70;;
14116;SDS011;7137;51.436;6.544;2022-09-09T14:59:13;1.70;;;0.63;;
14116;SDS011;7137;51.436;6.544;2022-09-09T15:02:15;3.53;;;0.87;;
14116;SDS011;7137;51.436;6.544;2022-09-09T15:05:18;4.47;;;0.97;;
14116;SDS011;7137;51.436;6.544;2022-09-09T15:08:20;2.73;;;0.80;;
14116;SDS011;7137;51.436;6.544;2022-09-09T15:11:22;3.93;;;1.10;;
14116;SDS011;7137;51.436;6.544;2022-09-09T15:14:24;3.13;;;0.90;;
14116;SDS011;7137;51.436;6.544;2022-09-09T15:17:26;1.40;;;0.60;;
14116;SDS011;7137;51.436;6.544;2022-09-09T15:20:29;2.73;;;0.90;;
14116;SDS011;7137;51.436;6.544;2022-09-09T15:23:31;3.33;;;0.70;;
14116;SDS011;7137;51.436;6.544;2022-09-09T15:26:33;3.63;;;1.00;;
14116;SDS011;7137;51.436;6.544;2022-09-09T15:29:38;2.63;;;0.70;;
14116;SDS011;7137;51.436;6.544;2022-09-09T15:32:39;2.67;;;0.70;;
14116;SDS011;7137;51.436;6.544;2022-09-09T15:35:42;3.13;;;0.90;;
14116;SDS011;7137;51.436;6.544;2022-09-09T15:38:44;3.70;;;1.10;;
14116;SDS011;7137;51.436;6.544;2022-09-09T15:41:46;2.60;;;1.00;;
14116;SDS011;7137;51.436;6.544;2022-09-09T15:44:48;3.90;;;0.90;;
14116;SDS011;7137;51.436;6.544;2022-09-09T15:47:50;1.73;;;0.83;;
14116;SDS011;7137;51.436;6.544;2022-09-09T15:50:53;3.40;;;0.70;;
14116;SDS011;7137;51.436;6.544;2022-09-09T15:54:03;3.77;;;0.90;;
14116;SDS011;7137;51.436;6.544;2022-09-09T15:57:05;1.63;;;0.80;;
14116;SDS011;7137;51.436;6.544;2022-09-09T16:00:09;2.63;;;0.80;;
14116;SDS011;7137;51.436;6.544;2022-09-09T16:03:13;2.53;;;1.00;;
14116;SDS011;7137;51.436;6.544;2022-09-09T16:06:16;2.67;;;0.80;;
14116;SDS011;7137;51.436;6.544;2022-09-09T16:09:21;2.83;;;0.90;;
14116;SDS011;7137;51.436;6.544;2022-09-09T16:12:23;3.23;;;1.00;;
14116;SDS011;7137;51.436;6.544;2022-09-09T16:15:26;3.03;;;0.90;;
14116;SDS011;7137;51.436;6.544;2022-09-09T16:18:32;2.90;;;1.00;;
14116;SDS011;7137;51.436;6.544;2022-09-09T16:21:37;3.73;;;1.40;;
14116;SDS011;7137;51.436;6.544;2022-09-09T16:24:40;4.27;;;1.40;;
14116;SDS011;7137;51.436;6.544;2022-09-09T16:27:42;4.40;;;1.30;;
14116;SDS011;7137;51.436;6.544;2022-09-09T16:30:44;2.80;;;0.97;;
14116;SDS011;7137;51.436;6.544;2022-09-09T16:33:45;4.33;;;1.53;;
14116;SDS011;7137;51.436;6.544;2022-09-09T16:36:48;2.93;;;1.13;;
14116;SDS011;7137;51.436;6.544;2022-09-09T16:39:50;2.73;;;1.07;;
14116;SDS011;7137;51.436;6.544;2022-09-09T16:42:53;3.90;;;1.03;;
14116;SDS011;7137;51.436;6.544;2022-09-09T16:45:55;3.37;;;1.10;;
14116;SDS011;7137;51.436;6.544;2022-09-09T16:48:57;3.43;;;1.20;;
14116;SDS011;7137;51.436;6.544;2022-09-09T16:52:00;3.57;;;1.17;;
14116;SDS011;7137;51.436;6.544;2022-09-09T16:55:03;3.27;;;1.10;;
14116;SDS011;7137;51.436;6.544;2022-09-09T16:58:05;1.83;;;0.90;;
14116;SDS011;7137;51.436;6.544;2022-09-09T17:01:06;3.73;;;1.20;;
14116;SDS011;7137;51.436;6.544;2022-09-09T17:04:09;4.30;;;1.10;;
14116;SDS011;7137;51.436;6.544;2022-09-09T17:07:14;3.23;;;1.10;;
14116;SDS011;7137;51.436;6.544;2022-09-09T17:10:16;2.80;;;1.07;;
14116;SDS011;7137;51.436;6.544;2022-09-09T17:13:17;3.53;;;1.20;;
14116;SDS011;7137;51.436;6.544;2022-09-09T17:16:20;7.37;;;1.10;;
14116;SDS011;7137;51.436;6.544;2022-09-09T17:19:23;2.17;;;0.90;;
14116;SDS011;7137;51.436;6.544;2022-09-09T17:22:27;2.27;;;0.90;;
14116;SDS011;7137;51.436;6.544;2022-09-09T17:25:29;3.87;;;1.10;;
14116;SDS011;7137;51.436;6.544;2022-09-09T17:28:31;3.33;;;1.07;;
14116;SDS011;7137;51.436;6.544;2022-09-09T17:31:32;1.73;;;1.00;;
14116;SDS011;7137;51.436;6.544;2022-09-09T17:34:34;3.77;;;1.10;;
14116;SDS011;7137;51.436;6.544;2022-09-09T17:37:37;3.20;;;1.20;;
14116;SDS011;7137;51.436;6.544;2022-09-09T17:40:39;3.93;;;1.10;;
14116;SDS011;7137;51.436;6.544;2022-09-09T17:43:40;3.73;;;1.30;;
14116;SDS011;7137;51.436;6.544;2022-09-09T17:46:42;3.27;;;1.10;;
14116;SDS011;7137;51.436;6.544;2022-09-09T17:49:45;2.97;;;1.20;;
14116;SDS011;7137;51.436;6.544;2022-09-09T17:52:48;2.97;;;1.23;;
14116;SDS011;7137;51.436;6.544;2022-09-09T17:55:49;4.47;;;1.53;;
14116;SDS011;7137;51.436;6.544;2022-09-09T17:58:51;3.67;;;1.30;;
14116;SDS011;7137;51.436;6.544;2022-09-09T18:01:53;3.07;;;1.23;;
14116;SDS011;7137;51.436;6.544;2022-09-09T18:04:55;4.87;;;1.37;;
14116;SDS011;7137;51.436;6.544;2022-09-09T18:07:58;5.43;;;1.50;;
14116;SDS011;7137;51.436;6.544;2022-09-09T18:11:00;3.23;;;1.20;;
14116;SDS011;7137;51.436;6.544;2022-09-09T18:14:02;5.20;;;1.40;;
14116;SDS011;7137;51.436;6.544;2022-09-09T18:17:05;4.40;;;1.30;;
14116;SDS011;7137;51.436;6.544;2022-09-09T18:20:08;4.50;;;1.53;;
14116;SDS011;7137;51.436;6.544;2022-09-09T18:23:11;4.97;;;1.80;;
14116;SDS011;7137;51.436;6.544;2022-09-09T18:26:14;3.80;;;1.50;;
14116;SDS011;7137;51.436;6.544;2022-09-09T18:29:18;4.07;;;1.43;;
14116;SDS011;7137;51.436;6.544;2022-09-09T18:32:23;5.27;;;1.70;;
14116;SDS011;7137;51.436;6.544;2022-09-09T18:35:26;4.67;;;1.47;;
14116;SDS011;7137;51.436;6.544;2022-09-09T18:38:29;5.40;;;1.60;;
14116;SDS011;7137;51.436;6.544;2022-09-09T18:41:33;5.30;;;1.63;;
14116;SDS011;7137;51.436;6.544;2022-09-09T18:44:36;5.00;;;1.47;;
14116;SDS011;7137;51.436;6.544;2022-09-09T18:47:38;6.27;;;2.00;;
14116;SDS011;7137;51.436;6.544;2022-09-09T18:50:39;4.67;;;1.60;;
14116;SDS011;7137;51.436;6.544;2022-09-09T18:53:42;4.63;;;1.90;;
14116;SDS011;7137;51.436;6.544;2022-09-09T18:56:49;5.33;;;1.50;;